Time;durP1;ratioP1;P1;durP2;ratioP2;P2;SDS_P1;SDS_P2;PMS_P1;PMS_P2;Temp;Humidity;BMP_temperature;BMP_pressure;BME280_temperature;BME280_humidity;BME280_pressure;Samples;Min_cycle;Max_cycle;Signal;HPM_P1;HPM_P2
2022/12/25 01:35:46;;;;;;;10.32;4.43;;;;;;;;;;4937126;29;20052;-88
2022/12/25 01:39:23;;;;;;;11.15;4.10;;;;;;;;;;4879716;29;20051;-88
2022/12/25 01:42:33;;;;;;;8.77;3.97;;;;;;;;;;4851256;29;20118;-89
2022/12/25 01:45:43;;;;;;;15.07;4.50;;;;;;;;;;4789963;29;20047;-89
2022/12/25 01:49:31;;;;;;;20.35;4.38;;;;;;;;;;4835384;29;20064;-89
2022/12/25 01:52:49;;;;;;;14.27;4.63;;;;;;;;;;4802169;29;20149;-89
2022/12/25 01:56:15;;;;;;;13.98;4.75;;;;;;;;;;4796299;29;20506;-88
2022/12/25 01:59:10;;;;;;;16.73;4.78;;;;;;;;;;4765612;29;20257;-88
2022/12/25 02:02:14;;;;;;;14.52;5.03;;;;;;;;;;4763928;30;20094;-93
2022/12/25 02:05:17;;;;;;;15.77;4.88;;;;;;;;;;4738409;30;20214;-94
2022/12/25 02:08:27;;;;;;;16.60;5.57;;;;;;;;;;4740317;30;20052;-95
2022/12/25 02:11:55;;;;;;;15.00;4.50;;;;;;;;;;4778900;29;20139;-93
2022/12/25 02:18:59;;;;;;;16.77;5.03;;;;;;;;;;4779132;29;20142;-88
2022/12/25 02:22:53;;;;;;;24.15;5.65;;;;;;;;;;4821817;29;20131;-94
2022/12/25 02:26:24;;;;;;;14.27;5.53;;;;;;;;;;4836175;29;20058;-94
2022/12/25 02:34:53;;;;;;;12.23;5.22;;;;;;;;;;4822715;29;20135;-93
2022/12/25 02:42:07;;;;;;;17.90;6.03;;;;;;;;;;4806272;29;20054;-88
2022/12/25 03:07:22;;;;;;;14.77;5.97;;;;;;;;;;4737518;30;20053;-88
2022/12/25 03:18:31;;;;;;;13.27;5.63;;;;;;;;;;4686073;30;20058;-93
2022/12/25 03:28:26;;;;;;;22.08;7.20;;;;;;;;;;4686723;30;20595;-93
2022/12/25 03:32:04;;;;;;;16.30;5.63;;;;;;;;;;4697243;30;20061;-93
2022/12/25 03:35:22;;;;;;;17.20;6.43;;;;;;;;;;4686418;30;20065;-93
2022/12/25 04:36:46;;;;;;;14.68;5.63;;;;;;;;;;4872094;29;20050;-87
2022/12/25 04:40:01;;;;;;;14.98;5.45;;;;;;;;;;4895210;29;20059;-88
2022/12/25 04:43:16;;;;;;;20.38;5.97;;;;;;;;;;4877807;29;20049;-93
2022/12/25 04:46:31;;;;;;;14.88;5.68;;;;;;;;;;4900666;29;20048;-93
2022/12/25 04:50:11;;;;;;;15.73;6.43;;;;;;;;;;4919328;29;20066;-93
2022/12/25 04:53:06;;;;;;;16.20;6.75;;;;;;;;;;4934559;29;20051;-93
2022/12/25 04:56:20;;;;;;;17.73;6.68;;;;;;;;;;4921584;29;20058;-93
2022/12/25 05:00:23;;;;;;;18.13;6.13;;;;;;;;;;4926340;29;20066;-93
2022/12/25 05:04:22;;;;;;;16.95;6.22;;;;;;;;;;4874016;29;20120;-87
2022/12/25 05:08:36;;;;;;;15.85;5.82;;;;;;;;;;4798297;29;20126;-88
2022/12/25 05:16:18;;;;;;;17.42;6.60;;;;;;;;;;4736273;30;20127;-94
2022/12/25 05:20:33;;;;;;;25.52;6.22;;;;;;;;;;4736818;30;20071;-94
2022/12/25 05:23:58;;;;;;;14.35;5.82;;;;;;;;;;4674792;30;20081;-93
2022/12/25 05:27:33;;;;;;;13.30;6.03;;;;;;;;;;4664378;30;20055;-94
2022/12/25 05:31:57;;;;;;;16.13;6.35;;;;;;;;;;4652067;30;20090;-88
2022/12/25 05:39:58;;;;;;;14.82;6.10;;;;;;;;;;4669310;30;20057;-88
2022/12/25 05:47:17;;;;;;;18.17;6.82;;;;;;;;;;4653941;30;20112;-88
2022/12/25 05:51:30;;;;;;;25.80;8.38;;;;;;;;;;4726223;30;20465;-87
2022/12/25 05:55:20;;;;;;;;;;;;;;;;;;4718843;30;20064;-94
2022/12/25 06:06:57;;;;;;;23.65;8.90;;;;;;;;;;4736200;30;20044;-93
2022/12/25 06:10:16;;;;;;;20.95;6.40;;;;;;;;;;4716029;30;20090;-93
2022/12/25 06:18:01;;;;;;;21.00;8.57;;;;;;;;;;4705764;30;20049;-93
2022/12/25 06:25:21;;;;;;;13.65;6.47;;;;;;;;;;4791515;29;20058;-93
2022/12/25 06:29:07;;;;;;;19.20;7.20;;;;;;;;;;4794960;29;20101;-93
2022/12/25 06:32:00;;;;;;;26.73;8.43;;;;;;;;;;4792098;29;20059;-93
2022/12/25 06:35:25;;;;;;;28.55;8.55;;;;;;;;;;4769008;30;20055;-93
2022/12/25 06:39:03;;;;;;;21.00;6.95;;;;;;;;;;4762462;30;20533;-93
2022/12/25 06:43:23;;;;;;;19.73;7.07;;;;;;;;;;4772240;29;20513;-94
2022/12/25 06:46:11;;;;;;;25.15;7.38;;;;;;;;;;4767111;29;20142;-93
2022/12/25 06:50:08;;;;;;;23.80;7.05;;;;;;;;;;4806091;29;20082;-93
2022/12/25 06:53:46;;;;;;;22.20;5.55;;;;;;;;;;4902463;29;20498;-93
2022/12/25 06:57:16;;;;;;;22.13;6.82;;;;;;;;;;4883944;29;20053;-93
2022/12/25 07:08:12;;;;;;;22.58;7.07;;;;;;;;;;4813018;29;20145;-93
2022/12/25 07:11:09;;;;;;;26.33;8.43;;;;;;;;;;4828015;29;20050;-93
2022/12/25 07:13:56;;;;;;;22.70;8.70;;;;;;;;;;4782793;29;20150;-93
2022/12/25 07:16:48;;;;;;;26.88;7.65;;;;;;;;;;4794810;29;20058;-93
2022/12/25 07:20:13;;;;;;;19.23;7.20;;;;;;;;;;4809033;29;20054;-93
2022/12/25 07:23:56;;;;;;;28.02;6.53;;;;;;;;;;4794927;29;20042;-93
2022/12/25 07:31:30;;;;;;;16.73;6.50;;;;;;;;;;4821918;29;20081;-94
2022/12/25 07:35:08;;;;;;;20.35;5.75;;;;;;;;;;4798493;29;20126;-94
2022/12/25 07:39:23;;;;;;;11.68;5.70;;;;;;;;;;4804090;29;20043;-94
2022/12/25 07:48:11;;;;;;;16.20;6.07;;;;;;;;;;4827291;29;20179;-93
2022/12/25 07:51:30;;;;;;;24.77;6.72;;;;;;;;;;4812204;29;20046;-94
2022/12/25 07:55:01;;;;;;;21.20;6.25;;;;;;;;;;4826549;29;20058;-94
2022/12/25 07:58:03;;;;;;;18.15;6.20;;;;;;;;;;4810363;29;20471;-93
2022/12/25 08:01:53;;;;;;;18.92;5.93;;;;;;;;;;4784202;29;20051;-93
2022/12/25 08:05:33;;;;;;;18.00;5.47;;;;;;;;;;4823800;29;20403;-93
2022/12/25 08:09:45;;;;;;;24.40;6.35;;;;;;;;;;4821836;29;20050;-93
2022/12/25 08:18:04;;;;;;;17.10;6.03;;;;;;;;;;4793325;29;20039;-93
2022/12/25 08:21:18;;;;;;;27.55;6.75;;;;;;;;;;4782870;30;20063;-94
2022/12/25 08:32:23;;;;;;;;;;;;;;;;;;4805040;29;20070;-93
2022/12/25 08:40:34;;;;;;;39.55;7.60;;;;;;;;;;4807775;29;20112;-93
2022/12/25 08:44:12;;;;;;;21.52;7.43;;;;;;;;;;4795955;29;20057;-92
2022/12/25 08:47:31;;;;;;;20.85;6.85;;;;;;;;;;4825624;29;20130;-94
2022/12/25 08:51:58;;;;;;;22.65;7.38;;;;;;;;;;4776099;29;20047;-93
2022/12/25 08:54:50;;;;;;;30.42;5.28;;;;;;;;;;4824775;29;20063;-95
2022/12/25 08:58:03;;;;;;;17.80;5.85;;;;;;;;;;4803096;29;20544;-94
2022/12/25 09:00:56;;;;;;;;;;;;;;;;;;4803312;29;20059;-95
2022/12/25 09:04:09;;;;;;;23.50;5.47;;;;;;;;;;4788322;29;19925;-93
2022/12/25 09:07:24;;;;;;;28.40;6.90;;;;;;;;;;4789269;29;20118;-92
2022/12/25 09:10:08;;;;;;;20.55;8.88;;;;;;;;;;4826151;29;20525;-93
2022/12/25 09:12:48;;;;;;;28.15;7.85;;;;;;;;;;4826313;29;20174;-93
2022/12/25 09:16:32;;;;;;;28.73;6.68;;;;;;;;;;4808399;29;20055;-94
2022/12/25 09:19:44;;;;;;;27.75;6.40;;;;;;;;;;4794375;29;20106;-93
2022/12/25 09:22:29;;;;;;;17.88;6.28;;;;;;;;;;4779441;29;20189;-93
2022/12/25 09:25:01;;;;;;;18.63;5.88;;;;;;;;;;4798800;29;20058;-93
2022/12/25 09:27:54;;;;;;;25.40;6.38;;;;;;;;;;4815973;29;20558;-93
2022/12/25 09:30:28;;;;;;;26.60;5.40;;;;;;;;;;4861793;29;20240;-93
2022/12/25 09:33:45;;;;;;;18.50;5.22;;;;;;;;;;4878023;29;20041;-94
2022/12/25 09:37:15;;;;;;;16.65;5.90;;;;;;;;;;4794326;29;20050;-93
2022/12/25 09:44:34;;;;;;;22.05;5.13;;;;;;;;;;4815770;29;20041;-93
2022/12/25 09:47:44;;;;;;;16.52;5.07;;;;;;;;;;4877648;29;20065;-93
2022/12/25 09:51:26;;;;;;;16.63;5.55;;;;;;;;;;4870288;29;20072;-93
2022/12/25 09:54:51;;;;;;;20.73;5.45;;;;;;;;;;4843946;29;20057;-93
2022/12/25 09:58:16;;;;;;;25.37;5.87;;;;;;;;;;4782880;30;20165;-94
2022/12/25 10:01:35;;;;;;;19.10;5.15;;;;;;;;;;4798654;29;20067;-95
2022/12/25 10:05:49;;;;;;;21.38;4.95;;;;;;;;;;4728848;30;20059;-95
2022/12/25 10:19:05;;;;;;;28.70;6.10;;;;;;;;;;4775359;30;20490;-94
2022/12/25 10:22:56;;;;;;;18.23;6.18;;;;;;;;;;4721433;30;20053;-95
2022/12/25 10:30:34;;;;;;;21.13;5.45;;;;;;;;;;4720907;30;20056;-93
2022/12/25 10:33:23;;;;;;;19.65;5.57;;;;;;;;;;4684264;30;20049;-95
2022/12/25 10:36:55;;;;;;;17.10;4.95;;;;;;;;;;4739413;30;20067;-94
2022/12/25 10:44:25;;;;;;;21.70;5.25;;;;;;;;;;4754796;30;20052;-95
2022/12/25 10:47:48;;;;;;;23.40;5.38;;;;;;;;;;4763324;29;20055;-95
2022/12/25 10:51:39;;;;;;;15.77;6.18;;;;;;;;;;4810694;29;20051;-95
2022/12/25 10:59:14;;;;;;;23.35;7.80;;;;;;;;;;4865662;29;20042;-95
2022/12/25 11:02:40;;;;;;;19.02;6.18;;;;;;;;;;4834591;29;20057;-95
2022/12/25 11:05:55;;;;;;;17.45;6.50;;;;;;;;;;4850400;29;20046;-96
2022/12/25 11:09:20;;;;;;;18.30;6.10;;;;;;;;;;4841647;29;20408;-96
2022/12/25 11:12:45;;;;;;;20.15;5.53;;;;;;;;;;4861518;29;20139;-96
2022/12/25 11:17:04;;;;;;;18.15;5.72;;;;;;;;;;4919474;29;20051;-96
2022/12/25 11:30:34;;;;;;;16.40;6.63;;;;;;;;;;4892717;29;20036;-95
2022/12/25 11:33:49;;;;;;;25.95;7.35;;;;;;;;;;4850767;29;20499;-95
2022/12/25 11:36:53;;;;;;;18.50;5.40;;;;;;;;;;4848483;29;20597;-95
2022/12/25 11:41:26;;;;;;;20.35;5.25;;;;;;;;;;4799321;29;20080;-94
2022/12/25 11:45:46;;;;;;;20.50;5.57;;;;;;;;;;4771786;30;20064;-96
2022/12/25 11:50:22;;;;;;;17.10;5.70;;;;;;;;;;4735485;30;20272;-95
2022/12/25 12:08:19;;;;;;;20.13;5.20;;;;;;;;;;4657019;30;20061;-94
2022/12/25 12:30:30;;;;;;;16.17;6.20;;;;;;;;;;5156275;23;20054;-87
2022/12/25 12:33:05;;;;;;;17.38;5.57;;;;;;;;;;4973318;28;20047;-87
2022/12/25 12:35:38;;;;;;;25.52;6.00;;;;;;;;;;4963057;28;20043;-88
2022/12/25 12:38:21;;;;;;;17.83;5.85;;;;;;;;;;4981460;28;20039;-88
2022/12/25 12:40:56;;;;;;;17.85;5.60;;;;;;;;;;4973974;28;20111;-88
2022/12/25 12:43:37;;;;;;;18.83;6.40;;;;;;;;;;4978582;28;20047;-88
2022/12/25 12:46:14;;;;;;;20.13;6.10;;;;;;;;;;4991301;28;20047;-88
2022/12/25 12:48:45;;;;;;;13.60;6.03;;;;;;;;;;4984659;28;20517;-88
2022/12/25 12:51:25;;;;;;;19.70;6.53;;;;;;;;;;4980303;28;20126;-88
2022/12/25 12:54:20;;;;;;;25.13;6.10;;;;;;;;;;4976240;28;20035;-88
2022/12/25 12:56:59;;;;;;;14.77;5.38;;;;;;;;;;4971288;28;20449;-88
2022/12/25 12:59:45;;;;;;;22.00;6.18;;;;;;;;;;4957552;28;20046;-88
2022/12/25 13:02:41;;;;;;;22.30;6.25;;;;;;;;;;4989998;28;20042;-88
2022/12/25 13:05:30;;;;;;;19.23;6.07;;;;;;;;;;4966558;28;20067;-87
2022/12/25 13:08:38;;;;;;;20.58;6.90;;;;;;;;;;4969711;28;20050;-88
2022/12/25 13:11:23;;;;;;;25.08;5.82;;;;;;;;;;4970354;28;20042;-88
2022/12/25 13:13:53;;;;;;;23.65;5.40;;;;;;;;;;4981988;28;20126;-88
2022/12/25 13:16:39;;;;;;;18.48;5.53;;;;;;;;;;4992031;28;20039;-88
2022/12/25 13:19:15;;;;;;;19.70;6.20;;;;;;;;;;4963206;28;20051;-89
2022/12/25 13:22:23;;;;;;;13.40;5.82;;;;;;;;;;4974059;28;20043;-89
2022/12/25 13:24:59;;;;;;;19.58;7.03;;;;;;;;;;4965564;28;20138;-89
2022/12/25 13:27:32;;;;;;;20.40;6.40;;;;;;;;;;4971929;28;20462;-89
2022/12/25 13:29:59;;;;;;;21.20;6.57;;;;;;;;;;4980403;28;20067;-89
2022/12/25 13:32:32;;;;;;;15.48;5.95;;;;;;;;;;4965202;28;20063;-88
2022/12/25 13:35:11;;;;;;;17.98;6.32;;;;;;;;;;4952601;28;20133;-88
2022/12/25 13:37:44;;;;;;;13.60;5.88;;;;;;;;;;4971000;28;20393;-89
2022/12/25 13:40:26;;;;;;;20.15;6.10;;;;;;;;;;4962138;28;20035;-89
2022/12/25 13:42:59;;;;;;;18.63;6.47;;;;;;;;;;4973585;28;20046;-88
2022/12/25 13:45:53;;;;;;;20.70;6.07;;;;;;;;;;4975252;28;20043;-88
2022/12/25 13:48:22;;;;;;;16.42;6.15;;;;;;;;;;4971153;28;20509;-88
2022/12/25 13:50:56;;;;;;;26.75;6.90;;;;;;;;;;4962601;28;20045;-89
2022/12/25 13:53:28;;;;;;;25.08;6.38;;;;;;;;;;4956415;28;20047;-89
2022/12/25 13:55:57;;;;;;;22.27;5.85;;;;;;;;;;4984591;28;20445;-89
2022/12/25 13:58:29;;;;;;;22.27;6.15;;;;;;;;;;4970561;28;20054;-88
2022/12/25 14:00:58;;;;;;;20.23;7.07;;;;;;;;;;4964828;28;20050;-88
2022/12/25 14:03:40;;;;;;;19.00;6.55;;;;;;;;;;4971088;28;20046;-89
2022/12/25 14:06:29;;;;;;;22.17;6.45;;;;;;;;;;4995043;28;20071;-89
2022/12/25 14:09:03;;;;;;;18.02;5.70;;;;;;;;;;4964127;28;20035;-89
2022/12/25 14:11:31;;;;;;;23.20;7.20;;;;;;;;;;4966875;28;20432;-89
2022/12/25 14:14:12;;;;;;;18.00;6.10;;;;;;;;;;4952931;28;20057;-89
2022/12/25 14:17:04;;;;;;;16.60;6.13;;;;;;;;;;4966137;28;20117;-89
2022/12/25 14:19:59;;;;;;;15.65;5.72;;;;;;;;;;4960292;28;20062;-88
2022/12/25 14:22:40;;;;;;;16.88;5.50;;;;;;;;;;4967229;28;20066;-88
2022/12/25 14:25:14;;;;;;;16.73;5.18;;;;;;;;;;4985119;28;20094;-88
2022/12/25 14:27:51;;;;;;;19.27;6.50;;;;;;;;;;4971654;28;20047;-88
2022/12/25 14:30:27;;;;;;;18.17;5.10;;;;;;;;;;4972490;28;20047;-88
2022/12/25 14:32:55;;;;;;;20.70;6.07;;;;;;;;;;4966564;28;20047;-89
2022/12/25 14:35:23;;;;;;;17.73;5.88;;;;;;;;;;4973560;28;20051;-88
2022/12/25 14:38:26;;;;;;;17.35;5.93;;;;;;;;;;4986213;28;20111;-88
2022/12/25 14:41:15;;;;;;;13.93;5.10;;;;;;;;;;4958224;28;20082;-89
2022/12/25 14:43:52;;;;;;;15.98;5.80;;;;;;;;;;4961087;28;20070;-88
2022/12/25 14:46:26;;;;;;;17.10;6.05;;;;;;;;;;4974934;28;20478;-88
2022/12/25 14:49:06;;;;;;;21.00;6.15;;;;;;;;;;4968058;28;20050;-88
2022/12/25 14:51:37;;;;;;;16.95;5.50;;;;;;;;;;4971772;28;20053;-88
2022/12/25 14:54:58;;;;;;;21.73;5.93;;;;;;;;;;4973449;28;20042;-89
2022/12/25 14:57:36;;;;;;;18.98;5.50;;;;;;;;;;4974531;28;20047;-89
2022/12/25 15:00:43;;;;;;;17.67;5.75;;;;;;;;;;4973367;28;20067;-88
2022/12/25 15:03:23;;;;;;;18.92;5.40;;;;;;;;;;4952276;29;20063;-89
2022/12/25 15:06:04;;;;;;;17.65;6.05;;;;;;;;;;4947514;29;20127;-89
2022/12/25 15:08:33;;;;;;;16.05;6.20;;;;;;;;;;4939892;29;20110;-89
2022/12/25 15:11:07;;;;;;;26.05;7.13;;;;;;;;;;4931532;29;20039;-89
2022/12/25 15:13:34;;;;;;;19.27;5.80;;;;;;;;;;4927969;29;20304;-88
2022/12/25 15:16:13;;;;;;;18.60;5.75;;;;;;;;;;4942046;29;20066;-89
2022/12/25 15:19:13;;;;;;;23.30;6.13;;;;;;;;;;4945776;29;20040;-89
2022/12/25 15:21:44;;;;;;;10.68;5.35;;;;;;;;;;4951790;29;20047;-89
2022/12/25 15:24:13;;;;;;;15.05;6.28;;;;;;;;;;4950375;29;20042;-87
2022/12/25 15:26:41;;;;;;;16.13;5.57;;;;;;;;;;4926167;29;20055;-87
2022/12/25 15:29:34;;;;;;;13.57;5.82;;;;;;;;;;4938332;29;20678;-87
2022/12/25 15:32:32;;;;;;;13.05;6.20;;;;;;;;;;4941717;29;20058;-88
2022/12/25 15:35:00;;;;;;;27.73;6.35;;;;;;;;;;4942777;29;20091;-87
2022/12/25 15:37:28;;;;;;;15.82;5.75;;;;;;;;;;4940797;29;20055;-87
2022/12/25 15:39:56;;;;;;;23.63;6.63;;;;;;;;;;4950761;28;20046;-87
2022/12/25 15:42:24;;;;;;;22.25;6.63;;;;;;;;;;4965399;28;20053;-87
2022/12/25 15:44:56;;;;;;;18.60;6.40;;;;;;;;;;4967001;28;20047;-87
2022/12/25 15:47:50;;;;;;;20.15;8.88;;;;;;;;;;4962923;28;20609;-87
2022/12/25 15:50:22;;;;;;;20.50;8.20;;;;;;;;;;4963955;28;20101;-87
2022/12/25 15:52:50;;;;;;;16.10;6.75;;;;;;;;;;4968571;28;20043;-87
2022/12/25 15:55:18;;;;;;;15.07;6.25;;;;;;;;;;4978704;28;20560;-87
2022/12/25 15:57:47;;;;;;;18.17;7.00;;;;;;;;;;4967921;28;20039;-87
2022/12/25 16:00:21;;;;;;;16.30;6.70;;;;;;;;;;4963998;28;20158;-87
2022/12/25 16:03:14;;;;;;;20.35;6.00;;;;;;;;;;4964817;28;20043;-87
2022/12/25 16:05:42;;;;;;;21.90;6.57;;;;;;;;;;4964914;28;20043;-87
2022/12/25 16:08:34;;;;;;;22.13;6.63;;;;;;;;;;4964199;28;20050;-87
2022/12/25 16:11:02;;;;;;;15.88;6.30;;;;;;;;;;4965070;28;20039;-87
2022/12/25 16:13:34;;;;;;;15.35;6.38;;;;;;;;;;4951753;28;20559;-87
2022/12/25 16:16:03;;;;;;;17.08;6.85;;;;;;;;;;4960189;28;20050;-86
2022/12/25 16:18:30;;;;;;;17.02;6.43;;;;;;;;;;4963348;28;20050;-87
2022/12/25 16:20:59;;;;;;;14.25;6.43;;;;;;;;;;4950189;28;20643;-87
2022/12/25 16:23:29;;;;;;;19.38;6.57;;;;;;;;;;4966113;28;20043;-87
2022/12/25 16:26:05;;;;;;;20.98;6.65;;;;;;;;;;4971828;28;20089;-87
2022/12/25 16:28:35;;;;;;;15.27;6.75;;;;;;;;;;4969569;28;20412;-88
2022/12/25 16:31:11;;;;;;;21.58;6.68;;;;;;;;;;4969841;28;20291;-87
2022/12/25 16:33:43;;;;;;;16.85;7.05;;;;;;;;;;4964649;28;20049;-87
2022/12/25 16:36:17;;;;;;;14.27;5.95;;;;;;;;;;4963632;28;20039;-87
2022/12/25 16:38:58;;;;;;;20.17;7.38;;;;;;;;;;4963795;28;20135;-87
2022/12/25 16:41:31;;;;;;;21.13;7.82;;;;;;;;;;4965021;28;20081;-87
2022/12/25 16:44:02;;;;;;;18.60;6.85;;;;;;;;;;4967547;28;20046;-87
2022/12/25 16:46:30;;;;;;;14.57;6.60;;;;;;;;;;4964017;28;20043;-87
2022/12/25 16:48:58;;;;;;;15.10;5.75;;;;;;;;;;4959864;28;20446;-87
2022/12/25 16:51:26;;;;;;;17.30;7.93;;;;;;;;;;4945736;28;20049;-87
2022/12/25 16:53:56;;;;;;;17.42;6.10;;;;;;;;;;4956873;28;20043;-87
2022/12/25 16:56:29;;;;;;;16.65;5.63;;;;;;;;;;4934595;28;20386;-87
2022/12/25 16:59:01;;;;;;;22.50;6.68;;;;;;;;;;4965296;28;20525;-87
2022/12/25 17:01:31;;;;;;;16.75;6.50;;;;;;;;;;4934571;28;20134;-87
2022/12/25 17:04:03;;;;;;;14.00;6.18;;;;;;;;;;4988974;28;20039;-88
2022/12/25 17:06:33;;;;;;;22.92;7.28;;;;;;;;;;4976330;28;20084;-88
2022/12/25 17:09:25;;;;;;;18.05;6.32;;;;;;;;;;4977177;28;20069;-89
2022/12/25 17:11:55;;;;;;;17.63;7.15;;;;;;;;;;4974760;28;20125;-89
2022/12/25 17:14:25;;;;;;;17.02;7.38;;;;;;;;;;4964784;28;20133;-89
2022/12/25 17:16:55;;;;;;;16.75;7.63;;;;;;;;;;4987905;28;20049;-89
2022/12/25 17:19:25;;;;;;;14.38;6.40;;;;;;;;;;4977981;28;20514;-88
2022/12/25 17:21:58;;;;;;;20.92;6.35;;;;;;;;;;4972195;28;20035;-89
2022/12/25 17:24:27;;;;;;;22.50;6.65;;;;;;;;;;4972561;28;20078;-89
2022/12/25 17:27:07;;;;;;;15.35;6.20;;;;;;;;;;4977435;28;20110;-89
2022/12/25 17:29:38;;;;;;;16.65;6.88;;;;;;;;;;4966433;28;20097;-89
2022/12/25 17:32:13;;;;;;;13.57;6.63;;;;;;;;;;4980802;28;20067;-89
2022/12/25 17:34:42;;;;;;;15.55;7.40;;;;;;;;;;4974906;28;20035;-89
2022/12/25 17:37:14;;;;;;;17.90;8.57;;;;;;;;;;4976249;28;20046;-89
2022/12/25 17:39:48;;;;;;;20.20;8.32;;;;;;;;;;4978419;28;20043;-89
2022/12/25 17:42:16;;;;;;;12.52;6.70;;;;;;;;;;4955129;28;20101;-89
2022/12/25 17:44:45;;;;;;;14.95;6.63;;;;;;;;;;4962701;28;20043;-89
2022/12/25 17:47:17;;;;;;;15.90;6.43;;;;;;;;;;4966279;28;20485;-89
2022/12/25 17:49:44;;;;;;;19.40;9.07;;;;;;;;;;4962772;28;20043;-89
2022/12/25 17:52:16;;;;;;;14.57;6.78;;;;;;;;;;4965246;28;20061;-89
2022/12/25 17:54:44;;;;;;;16.65;7.32;;;;;;;;;;4966812;28;20412;-89
2022/12/25 17:57:12;;;;;;;14.40;7.00;;;;;;;;;;4959088;28;20042;-89
2022/12/25 17:59:40;;;;;;;13.75;6.80;;;;;;;;;;4961975;28;20098;-89
2022/12/25 18:02:10;;;;;;;12.30;6.35;;;;;;;;;;4953030;28;20031;-89
2022/12/25 18:04:38;;;;;;;12.40;6.60;;;;;;;;;;4957148;28;20042;-89
2022/12/25 18:07:31;;;;;;;13.48;7.18;;;;;;;;;;4964583;28;20113;-89
2022/12/25 18:10:05;;;;;;;13.02;6.32;;;;;;;;;;4965585;28;20150;-89
2022/12/25 18:12:32;;;;;;;16.10;5.70;;;;;;;;;;4954253;28;20074;-89
2022/12/25 18:15:05;;;;;;;12.25;6.20;;;;;;;;;;4956404;28;20057;-88
2022/12/25 18:17:32;;;;;;;14.10;6.03;;;;;;;;;;4967155;28;20074;-89
2022/12/25 18:20:01;;;;;;;19.55;7.75;;;;;;;;;;4961969;28;20038;-88
2022/12/25 18:22:35;;;;;;;17.65;7.60;;;;;;;;;;4965275;28;20039;-88
2022/12/25 18:25:08;;;;;;;19.02;7.90;;;;;;;;;;4965870;28;20050;-88
2022/12/25 18:27:36;;;;;;;14.70;6.82;;;;;;;;;;4961903;28;20054;-88
2022/12/25 18:30:05;;;;;;;17.92;9.25;;;;;;;;;;4962433;28;20420;-88
2022/12/25 18:32:56;;;;;;;18.88;9.02;;;;;;;;;;4965417;28;20047;-88
2022/12/25 18:35:28;;;;;;;17.13;8.60;;;;;;;;;;4964942;28;20414;-88
2022/12/25 18:37:56;;;;;;;15.13;7.28;;;;;;;;;;4989849;28;20047;-88
2022/12/25 18:40:24;;;;;;;19.13;7.75;;;;;;;;;;4966366;28;20052;-89
2022/12/25 18:42:52;;;;;;;15.15;6.78;;;;;;;;;;4968665;28;20111;-89
2022/12/25 18:45:30;;;;;;;12.63;6.28;;;;;;;;;;4965087;28;20401;-89
2022/12/25 18:48:04;;;;;;;16.35;7.10;;;;;;;;;;4965737;28;20046;-89
2022/12/25 18:50:33;;;;;;;17.88;8.27;;;;;;;;;;4964293;28;20053;-89
2022/12/25 18:53:03;;;;;;;14.60;7.70;;;;;;;;;;4952367;28;20678;-89
2022/12/25 18:55:30;;;;;;;16.90;7.47;;;;;;;;;;4965303;28;20039;-89
2022/12/25 18:57:58;;;;;;;16.10;7.35;;;;;;;;;;4953134;28;20047;-89
2022/12/25 19:00:26;;;;;;;15.65;7.57;;;;;;;;;;4981755;28;20528;-89
2022/12/25 19:02:57;;;;;;;14.30;7.90;;;;;;;;;;4958880;28;20075;-89
2022/12/25 19:05:30;;;;;;;15.50;6.93;;;;;;;;;;4963606;28;20121;-89
2022/12/25 19:07:58;;;;;;;12.13;6.20;;;;;;;;;;4964547;28;20796;-89
2022/12/25 19:10:26;;;;;;;14.15;6.95;;;;;;;;;;4964393;28;20086;-89
2022/12/25 19:12:54;;;;;;;14.02;6.95;;;;;;;;;;4961665;28;20042;-89
2022/12/25 19:15:26;;;;;;;12.98;6.50;;;;;;;;;;4963524;28;20501;-89
2022/12/25 19:17:54;;;;;;;11.35;6.35;;;;;;;;;;4961449;28;20061;-88
2022/12/25 19:20:22;;;;;;;11.95;6.38;;;;;;;;;;4954371;28;20042;-89
2022/12/25 19:22:50;;;;;;;13.45;6.45;;;;;;;;;;4968220;28;20054;-88
2022/12/25 19:25:18;;;;;;;11.35;5.55;;;;;;;;;;4962753;28;20454;-88
2022/12/25 19:27:46;;;;;;;10.52;4.95;;;;;;;;;;4967149;28;20077;-88
2022/12/25 19:30:14;;;;;;;10.48;5.22;;;;;;;;;;4968632;28;20047;-88
2022/12/25 19:32:42;;;;;;;11.18;4.95;;;;;;;;;;4977445;28;20386;-89
2022/12/25 19:35:10;;;;;;;10.45;5.45;;;;;;;;;;4968471;28;20045;-88
2022/12/25 19:37:38;;;;;;;9.38;4.90;;;;;;;;;;4979667;28;20046;-88
2022/12/25 19:40:10;;;;;;;9.90;5.22;;;;;;;;;;4964018;28;20501;-89
2022/12/25 19:42:38;;;;;;;12.02;4.88;;;;;;;;;;4964193;28;20038;-88
2022/12/25 19:45:07;;;;;;;9.60;4.47;;;;;;;;;;4965120;28;20049;-89
2022/12/25 19:47:34;;;;;;;9.55;4.60;;;;;;;;;;4966772;28;20039;-88
2022/12/25 19:50:02;;;;;;;10.32;4.45;;;;;;;;;;4963282;28;21748;-89
2022/12/25 19:52:30;;;;;;;9.25;4.60;;;;;;;;;;4966917;28;20093;-88
2022/12/25 19:55:05;;;;;;;9.18;4.90;;;;;;;;;;4965013;28;20043;-88
2022/12/25 19:57:32;;;;;;;9.50;4.80;;;;;;;;;;4965138;28;20038;-89
2022/12/25 20:00:24;;;;;;;7.95;3.95;;;;;;;;;;4980730;28;20062;-89
2022/12/25 20:02:52;;;;;;;7.53;4.00;;;;;;;;;;4964215;28;20129;-89
2022/12/25 20:05:24;;;;;;;6.90;3.80;;;;;;;;;;4964750;28;20564;-89
2022/12/25 20:07:53;;;;;;;8.95;3.88;;;;;;;;;;4964116;28;20043;-90
2022/12/25 20:10:20;;;;;;;7.25;3.53;;;;;;;;;;4967158;28;20081;-88
2022/12/25 20:12:49;;;;;;;7.72;4.10;;;;;;;;;;4966554;28;20042;-89
2022/12/25 20:15:42;;;;;;;6.97;3.90;;;;;;;;;;4964888;28;20062;-89
2022/12/25 20:18:10;;;;;;;6.68;3.65;;;;;;;;;;4976569;28;20094;-89
2022/12/25 20:21:05;;;;;;;8.23;3.95;;;;;;;;;;4965178;28;20456;-89
2022/12/25 20:23:32;;;;;;;7.97;3.75;;;;;;;;;;4978614;28;20039;-89
2022/12/25 20:26:03;;;;;;;7.00;3.65;;;;;;;;;;4963424;28;20089;-89
2022/12/25 20:28:40;;;;;;;5.68;2.95;;;;;;;;;;4964053;28;20417;-89
2022/12/25 20:31:33;;;;;;;7.75;3.60;;;;;;;;;;4968788;28;20031;-89
2022/12/25 20:34:09;;;;;;;6.28;3.15;;;;;;;;;;4962108;28;20086;-89
2022/12/25 20:36:48;;;;;;;7.53;3.38;;;;;;;;;;4964930;28;20045;-89
2022/12/25 20:39:16;;;;;;;5.63;3.00;;;;;;;;;;4962904;28;20046;-90
2022/12/25 20:41:48;;;;;;;6.28;3.40;;;;;;;;;;4963359;28;20047;-89
2022/12/25 20:44:16;;;;;;;5.05;2.70;;;;;;;;;;4976988;28;20098;-89
2022/12/25 20:46:44;;;;;;;7.30;3.78;;;;;;;;;;4964611;28;20055;-88
2022/12/25 20:49:12;;;;;;;5.50;3.05;;;;;;;;;;4952560;28;20039;-89
2022/12/25 20:51:40;;;;;;;6.88;3.70;;;;;;;;;;4979545;28;20057;-89
2022/12/25 20:54:09;;;;;;;6.82;3.65;;;;;;;;;;4966259;28;20046;-89
2022/12/25 20:56:42;;;;;;;7.10;3.38;;;;;;;;;;4968362;28;20047;-89
2022/12/25 20:59:11;;;;;;;27.48;4.35;;;;;;;;;;4966174;28;20044;-89
2022/12/25 21:01:44;;;;;;;6.45;3.25;;;;;;;;;;4965602;28;20130;-88
2022/12/25 21:04:13;;;;;;;6.65;3.72;;;;;;;;;;4971731;28;20074;-88
2022/12/25 21:06:44;;;;;;;6.32;3.65;;;;;;;;;;4973457;28;20039;-89
2022/12/25 21:09:12;;;;;;;6.32;3.40;;;;;;;;;;4967729;28;20046;-88
2022/12/25 21:11:41;;;;;;;6.85;3.80;;;;;;;;;;4971108;28;20751;-88
2022/12/25 21:14:09;;;;;;;6.75;3.35;;;;;;;;;;4968567;28;20042;-89
2022/12/25 21:16:43;;;;;;;6.55;3.55;;;;;;;;;;4979432;28;20367;-90
2022/12/25 21:19:10;;;;;;;8.48;3.25;;;;;;;;;;4982301;28;20101;-89
2022/12/25 21:21:41;;;;;;;6.47;3.45;;;;;;;;;;4949546;28;20030;-88
2022/12/25 21:24:11;;;;;;;7.50;3.33;;;;;;;;;;4965572;28;20434;-89
2022/12/25 21:26:44;;;;;;;6.25;3.13;;;;;;;;;;4973730;28;20750;-89
2022/12/25 21:29:21;;;;;;;6.85;3.92;;;;;;;;;;4966322;28;20130;-89
2022/12/25 21:35:03;;;;;;;5.57;3.10;;;;;;;;;;4960669;28;20031;-89
2022/12/25 21:37:31;;;;;;;8.07;4.30;;;;;;;;;;4946787;28;20035;-88
2022/12/25 21:40:05;;;;;;;8.95;3.90;;;;;;;;;;4952811;28;20047;-88
2022/12/25 21:43:06;;;;;;;8.52;4.13;;;;;;;;;;4961935;28;20035;-88
2022/12/25 21:45:34;;;;;;;8.02;3.95;;;;;;;;;;4965116;28;20483;-88
2022/12/25 21:48:02;;;;;;;7.75;3.63;;;;;;;;;;4967006;28;20047;-89
2022/12/25 21:53:20;;;;;;;6.50;3.53;;;;;;;;;;4966630;28;20493;-88
2022/12/25 21:56:12;;;;;;;6.78;3.50;;;;;;;;;;4964390;28;20035;-89
2022/12/25 21:58:41;;;;;;;7.10;3.00;;;;;;;;;;4949950;28;20444;-88
2022/12/25 22:01:15;;;;;;;7.15;3.75;;;;;;;;;;4979127;28;20721;-87
2022/12/25 22:03:43;;;;;;;8.50;4.28;;;;;;;;;;4963525;28;20043;-88
2022/12/25 22:09:08;;;;;;;8.93;4.72;;;;;;;;;;4965075;28;20050;-88
2022/12/25 22:20:18;;;;;;;7.85;4.72;;;;;;;;;;4973758;28;20831;-88
2022/12/25 22:22:46;;;;;;;8.10;4.35;;;;;;;;;;4984708;28;20042;-88
2022/12/25 22:25:19;;;;;;;8.82;4.78;;;;;;;;;;4970783;28;20046;-87
2022/12/25 22:27:47;;;;;;;9.85;5.28;;;;;;;;;;4966652;28;20039;-87
2022/12/25 22:30:23;;;;;;;12.35;4.82;;;;;;;;;;4970429;28;20122;-87
2022/12/25 22:32:51;;;;;;;10.02;4.75;;;;;;;;;;4964135;28;20367;-87
2022/12/25 22:35:24;;;;;;;8.80;5.00;;;;;;;;;;4964885;28;20057;-87
2022/12/25 22:38:16;;;;;;;8.52;4.75;;;;;;;;;;4967686;28;20031;-87
2022/12/25 22:40:44;;;;;;;12.77;4.80;;;;;;;;;;4967490;28;20039;-87
2022/12/25 22:43:12;;;;;;;10.82;5.57;;;;;;;;;;4971942;28;20039;-87
2022/12/25 22:45:40;;;;;;;10.90;5.47;;;;;;;;;;4969781;28;20042;-88
2022/12/25 22:48:08;;;;;;;8.88;5.00;;;;;;;;;;4963823;28;20047;-87
2022/12/25 22:50:36;;;;;;;11.43;4.88;;;;;;;;;;4969282;28;20433;-87
2022/12/25 22:53:04;;;;;;;8.70;4.38;;;;;;;;;;4964513;28;20039;-88